Veracruz, México

9:08 PM CDT en Junio 26, 2017 (GMT -0500)
Amador Russell, S. de P.R. de R.L. | | Change Station

Alt 98 ft 18.14 °N, 95.57 °W | Updated 23 minutes ago

Muy nublado
Muy nublado
79.9 ° F
Sensación térmica 85 ° F
N
0.0
Viento Variable Viento desde NO
Gusts 0.0 mph

Hoy
Alta -- | Baja -- ° F
--% Posibilidad de precipitaciones
Ayer
Alta -- | Baja -- ° F
Precip. -- pul
Presión 29.94 pul
Visibilidad 7.0 Millas
Nubes Baja 1000 ft
Nubes dispersas 7000 ft
Muy nublado 25000 ft
Índice de calor 85 ° F
Punto de rocío 76 ° F
Humedad 88%
Precipitaciones 0.03 pul
Espesor de la nieve No disponible.
6:48 AM 8:02 PM
Creciente, 12% visible
METAR MMVR 270140Z 03005KT 7SM FEW010 SCT070 BKN250 27/23 A2994 RMK 8/131 HZY DSNT TCU 3,4TH QUAD
Presión 29.94 pul
Visibilidad 7.0 Millas
Nubes Baja 1000 ft
Nubes dispersas 7000 ft
Muy nublado 25000 ft
Índice de calor 85 ° F
Punto de rocío 76 ° F
Humedad 88%
Precipitaciones 0.03 pul
Espesor de la nieve No disponible.
6:48 AM 8:02 PM
Creciente, 12% visible
METAR MMVR 270140Z 03005KT 7SM FEW010 SCT070 BKN250 27/23 A2994 RMK 8/131 HZY DSNT TCU 3,4TH QUAD

Get Severe Weather Alerts

Thanks for signing up!

Be on the lookout for a verification email in your inbox.

You'll start receiving the daily forecast at 6 AM.

×

10-Day Weather Forecast

No radar image for this location.
×

Almanac

Astronomía

Jun. 26, 2017 Salida Puesta
Hora real
Crepúsculo civil
Crepúsculo náutico
Crepúsculo astronómico
Luna
Horas de luz
Horas de luz
Tomorrow will be .
, % of the Moon is Illuminated

Extremos de hoy

Máximos del país Bajas del país

Community

WunderPhotos

Category 6

Welcome to Category 6. This is the collective home for Weather Underground's featured writeups by Dr. Jeff Masters (right), Bob Henson (left), Chris Burt, and other regular contributors.

Nearby

Calidad del aire

  Calidad del aire Índice AQ Contaminante
Not available.

Grosos de nieve

Estación Profundido Altura

Actividad de terremotos

Ciudad Distance Mag. Tiempo y dato
Magnitud mínima muestra es 2,5.

Temperaturas de aguas costeras

Lugar Temperatura

Stations

Estaciones meteorológicas cercanas

Ubicación de la estación Temp. Vientos helados Punto de rocío Humedad Viento Precip. Alt Actualizado Tipo